Time;durP1;ratioP1;P1;durP2;ratioP2;P2;SDS_P1;SDS_P2;PMS_P1;PMS_P2;Temp;Humidity;BMP_temperature;BMP_pressure;BME280_temperature;BME280_humidity;BME280_pressure;Samples;Min_cycle;Max_cycle;Signal;HPM_P1;HPM_P2
2022/10/31 00:00:32;;;;;;;21.77;16.30;;;9.60;99.90;;;;;;5095097;28;20204;-75
2022/10/31 00:02:58;;;;;;;22.37;15.07;;;9.40;99.90;;;;;;5095039;28;20246;-76
2022/10/31 00:05:25;;;;;;;20.47;13.63;;;9.30;99.90;;;;;;5094692;28;20634;-76
2022/10/31 00:07:53;;;;;;;16.70;14.37;;;9.30;99.90;;;;;;5094747;28;20704;-76
2022/10/31 00:10:19;;;;;;;15.77;12.70;;;9.20;99.90;;;;;;5094747;28;20204;-75
2022/10/31 00:12:46;;;;;;;14.13;12.40;;;9.00;99.90;;;;;;5095019;28;20200;-76
2022/10/31 00:15:13;;;;;;;14.77;12.43;;;8.80;99.90;;;;;;5094662;28;20212;-76
2022/10/31 00:17:41;;;;;;;13.87;12.37;;;8.60;99.90;;;;;;5093880;28;20251;-76
2022/10/31 00:20:09;;;;;;;17.20;13.20;;;8.40;99.90;;;;;;5094494;28;20200;-76
2022/10/31 00:22:35;;;;;;;21.60;14.53;;;8.30;99.90;;;;;;5094546;28;20721;-76
2022/10/31 00:25:02;;;;;;;22.73;15.83;;;8.20;99.90;;;;;;5094390;28;20273;-76
2022/10/31 00:27:28;;;;;;;18.37;14.67;;;8.20;99.90;;;;;;5094556;28;20197;-77
2022/10/31 00:29:55;;;;;;;21.20;14.23;;;8.20;99.90;;;;;;5094574;28;20204;-77
2022/10/31 00:32:22;;;;;;;17.37;14.40;;;8.30;99.90;;;;;;5094447;28;20229;-76
2022/10/31 00:34:50;;;;;;;43.43;16.53;;;8.20;99.90;;;;;;5094316;28;20261;-76
2022/10/31 00:37:16;;;;;;;28.03;14.63;;;8.10;99.90;;;;;;5094199;28;20200;-76
2022/10/31 00:39:44;;;;;;;18.53;13.53;;;8.10;99.90;;;;;;5094125;28;20200;-76
2022/10/31 00:42:11;;;;;;;52.87;17.17;;;8.10;99.90;;;;;;5094329;28;20200;-76
2022/10/31 00:44:38;;;;;;;46.73;16.80;;;8.10;99.90;;;;;;5094244;28;20241;-76
2022/10/31 00:47:04;;;;;;;22.27;14.97;;;8.40;99.90;;;;;;5094282;28;20593;-76
2022/10/31 00:49:31;;;;;;;21.80;16.77;;;8.50;99.90;;;;;;5094147;28;20200;-76
2022/10/31 00:51:59;;;;;;;19.00;14.27;;;8.60;99.90;;;;;;5093974;28;20784;-76
2022/10/31 00:54:26;;;;;;;17.13;14.47;;;8.60;99.90;;;;;;5093819;28;20250;-76
2022/10/31 00:56:52;;;;;;;23.20;16.60;;;8.50;99.90;;;;;;5093986;28;20201;-77
2022/10/31 00:59:19;;;;;;;19.63;15.70;;;8.50;99.90;;;;;;5093941;28;20257;-76
2022/10/31 01:01:46;;;;;;;21.37;16.27;;;8.50;99.90;;;;;;5093945;28;20225;-76
2022/10/31 01:04:12;;;;;;;20.20;15.47;;;8.60;99.90;;;;;;5093619;28;20236;-76
2022/10/31 01:06:39;;;;;;;19.00;15.17;;;8.50;99.90;;;;;;5093448;28;20227;-76
2022/10/31 01:09:07;;;;;;;23.60;16.27;;;8.40;99.90;;;;;;5093609;28;20200;-76
2022/10/31 01:11:34;;;;;;;32.07;17.07;;;8.30;99.90;;;;;;5093473;28;20712;-76
2022/10/31 01:14:00;;;;;;;26.73;17.07;;;8.40;99.90;;;;;;5093644;28;20192;-76
2022/10/31 01:16:29;;;;;;;22.43;17.20;;;8.50;99.90;;;;;;5093580;28;20197;-76
2022/10/31 01:18:55;;;;;;;28.20;17.83;;;8.40;99.90;;;;;;5093409;28;20644;-76
2022/10/31 01:21:24;;;;;;;32.97;17.63;;;8.50;99.90;;;;;;5093390;28;20200;-76
2022/10/31 01:23:51;;;;;;;22.37;16.07;;;8.60;99.90;;;;;;5093602;28;20199;-75
2022/10/31 01:26:21;;;;;;;18.50;14.80;;;8.50;99.90;;;;;;5093378;28;20223;-76
2022/10/31 01:28:50;;;;;;;19.83;15.03;;;8.40;99.90;;;;;;5093099;28;20230;-76
2022/10/31 01:31:19;;;;;;;16.80;14.37;;;8.20;99.90;;;;;;5093254;28;20200;-76
2022/10/31 01:33:45;;;;;;;17.53;13.83;;;8.30;99.90;;;;;;5093224;28;20250;-75
2022/10/31 01:36:15;;;;;;;19.50;15.63;;;8.20;99.90;;;;;;5093690;28;20192;-76
2022/10/31 01:38:42;;;;;;;18.60;15.50;;;8.20;99.90;;;;;;5093461;28;20242;-76
2022/10/31 01:41:10;;;;;;;39.93;17.07;;;8.10;99.90;;;;;;5093290;28;20241;-77
2022/10/31 01:43:47;;;;;;;37.37;18.00;;;8.20;99.90;;;;;;5093101;28;20200;-76
2022/10/31 01:46:17;;;;;;;66.03;19.57;;;8.10;99.90;;;;;;5092881;28;20227;-76
2022/10/31 01:48:44;;;;;;;57.27;19.00;;;8.00;99.90;;;;;;5093070;28;20249;-76
2022/10/31 01:51:15;;;;;;;32.80;18.13;;;7.90;99.90;;;;;;5093232;28;20253;-75
2022/10/31 01:53:44;;;;;;;19.07;15.13;;;7.90;99.90;;;;;;5092986;28;20655;-76
2022/10/31 01:56:11;;;;;;;27.67;17.00;;;7.90;99.90;;;;;;5092934;28;20254;-76
2022/10/31 01:58:37;;;;;;;23.30;16.30;;;8.00;99.90;;;;;;5092996;28;20716;-75
2022/10/31 02:01:05;;;;;;;21.20;16.50;;;8.00;99.90;;;;;;5092777;28;20257;-75
2022/10/31 02:03:33;;;;;;;21.20;15.57;;;7.90;99.90;;;;;;5092908;28;20199;-75
2022/10/31 02:05:59;;;;;;;24.40;17.07;;;7.90;99.90;;;;;;5092916;28;20220;-75
2022/10/31 02:08:28;;;;;;;20.67;15.50;;;7.90;99.90;;;;;;5092814;28;20196;-75
2022/10/31 02:10:56;;;;;;;23.70;16.77;;;7.90;99.90;;;;;;5092807;28;20200;-76
2022/10/31 02:13:24;;;;;;;25.67;17.03;;;7.90;99.90;;;;;;5092741;28;20200;-75
2022/10/31 02:15:54;;;;;;;20.30;15.23;;;8.00;99.90;;;;;;5092982;28;20204;-75
2022/10/31 02:18:23;;;;;;;21.33;15.63;;;8.00;99.90;;;;;;5092750;28;20655;-76
2022/10/31 02:21:00;;;;;;;20.40;15.97;;;8.10;99.90;;;;;;5092782;28;20196;-76
2022/10/31 02:23:54;;;;;;;21.43;16.23;;;8.10;99.90;;;;;;5092685;28;20199;-76
2022/10/31 02:26:50;;;;;;;20.37;15.37;;;8.10;99.90;;;;;;5092725;28;20289;-75
2022/10/31 02:29:41;;;;;;;21.53;15.83;;;7.90;99.90;;;;;;5079615;28;20241;-76
2022/10/31 02:32:13;;;;;;;19.70;14.80;;;7.90;99.90;;;;;;5092471;28;20200;-76
2022/10/31 02:34:49;;;;;;;18.63;14.40;;;7.80;99.90;;;;;;5092859;28;20348;-75
2022/10/31 02:37:26;;;;;;;19.53;14.30;;;7.70;99.90;;;;;;5092589;28;20203;-75
2022/10/31 02:39:57;;;;;;;17.20;14.07;;;7.70;99.90;;;;;;5092615;28;20207;-76
2022/10/31 02:42:30;;;;;;;19.97;14.47;;;7.70;99.90;;;;;;5094999;28;20258;-75
2022/10/31 02:45:01;;;;;;;16.87;13.53;;;7.70;99.90;;;;;;5096728;28;20196;-75
2022/10/31 02:47:33;;;;;;;14.63;13.03;;;7.60;99.90;;;;;;5096313;28;20224;-76
2022/10/31 02:50:05;;;;;;;14.73;12.10;;;7.80;99.90;;;;;;5096451;28;20200;-76
2022/10/31 02:52:34;;;;;;;16.73;14.13;;;7.90;99.90;;;;;;5096376;28;20196;-75
2022/10/31 02:55:11;;;;;;;18.73;13.73;;;7.80;99.90;;;;;;5096153;28;20196;-75
2022/10/31 02:57:39;;;;;;;20.30;14.60;;;7.80;99.90;;;;;;5096029;28;20604;-76
2022/10/31 03:00:09;;;;;;;17.23;15.10;;;7.70;99.90;;;;;;5096220;28;20246;-76
2022/10/31 03:02:50;;;;;;;23.00;15.27;;;8.00;99.90;;;;;;5096147;28;20192;-75
2022/10/31 03:05:28;;;;;;;23.00;17.40;;;8.00;99.90;;;;;;5095804;28;20767;-76
2022/10/31 03:08:00;;;;;;;19.83;16.20;;;7.90;99.90;;;;;;5096205;28;20252;-75
2022/10/31 03:10:36;;;;;;;24.73;18.10;;;7.80;99.90;;;;;;5096053;28;20196;-76
2022/10/31 03:13:10;;;;;;;20.27;16.87;;;7.90;99.90;;;;;;5095948;28;20292;-76
2022/10/31 03:15:41;;;;;;;25.10;16.73;;;8.00;99.90;;;;;;5095759;28;20674;-76
2022/10/31 03:18:13;;;;;;;22.77;16.10;;;8.00;99.90;;;;;;5095954;28;20272;-76
2022/10/31 03:20:42;;;;;;;31.93;19.90;;;8.00;99.90;;;;;;5095631;28;20238;-75
2022/10/31 03:23:14;;;;;;;27.93;17.63;;;8.10;99.90;;;;;;5095648;28;20204;-75
2022/10/31 03:25:41;;;;;;;29.83;19.30;;;8.00;99.90;;;;;;5095509;28;20199;-75
2022/10/31 03:28:09;;;;;;;37.77;20.93;;;7.90;99.90;;;;;;5095472;28;20242;-76
2022/10/31 03:30:39;;;;;;;34.27;19.67;;;8.00;99.90;;;;;;5095364;28;20238;-76
2022/10/31 03:33:11;;;;;;;45.77;18.73;;;7.90;99.90;;;;;;5095546;28;20706;-75
2022/10/31 03:35:41;;;;;;;32.83;19.03;;;7.90;99.90;;;;;;5095540;28;20249;-75
2022/10/31 03:38:10;;;;;;;40.37;21.30;;;8.00;99.90;;;;;;5095265;28;20658;-75
2022/10/31 03:40:39;;;;;;;45.97;23.50;;;8.10;99.90;;;;;;5095363;28;20225;-75
2022/10/31 03:43:11;;;;;;;41.97;23.13;;;8.10;99.90;;;;;;5095063;28;20249;-75
2022/10/31 03:45:42;;;;;;;32.10;21.27;;;8.00;99.90;;;;;;5095086;28;20647;-75
2022/10/31 03:48:10;;;;;;;27.50;19.70;;;7.90;99.90;;;;;;5095312;28;20197;-75
2022/10/31 03:50:44;;;;;;;31.00;18.67;;;7.90;99.90;;;;;;5095292;28;20200;-76
2022/10/31 03:53:15;;;;;;;33.13;18.90;;;7.80;99.90;;;;;;5094981;28;20333;-75
2022/10/31 03:55:47;;;;;;;35.77;20.30;;;7.80;99.90;;;;;;5095040;28;20687;-75
2022/10/31 03:58:22;;;;;;;37.03;18.33;;;7.90;99.90;;;;;;5095233;28;20219;-75
2022/10/31 04:00:52;;;;;;;41.97;19.53;;;7.90;99.90;;;;;;5094899;28;20245;-76
2022/10/31 04:03:24;;;;;;;29.90;17.27;;;7.90;99.90;;;;;;5094671;28;20249;-75
2022/10/31 04:05:53;;;;;;;23.23;17.23;;;8.00;99.90;;;;;;5094797;28;20203;-75
2022/10/31 04:08:23;;;;;;;39.47;19.23;;;7.80;99.90;;;;;;5094978;28;20590;-74
2022/10/31 04:10:52;;;;;;;49.93;20.03;;;7.80;99.90;;;;;;5094912;28;20196;-75
2022/10/31 04:13:24;;;;;;;30.17;18.80;;;7.80;99.90;;;;;;5094773;28;20196;-75
2022/10/31 04:15:53;;;;;;;22.60;15.63;;;7.60;99.90;;;;;;5094678;28;20317;-75
2022/10/31 04:18:21;;;;;;;25.60;17.63;;;7.50;99.90;;;;;;5094574;28;20201;-75
2022/10/31 04:20:49;;;;;;;20.43;15.07;;;7.50;99.90;;;;;;5094782;28;20192;-75
2022/10/31 04:23:20;;;;;;;23.60;16.67;;;7.60;99.90;;;;;;5094685;28;20200;-75
2022/10/31 04:25:46;;;;;;;22.30;16.00;;;7.50;99.90;;;;;;5093910;28;20288;-75
2022/10/31 04:28:13;;;;;;;22.73;16.00;;;7.50;99.90;;;;;;5094391;28;20246;-75
2022/10/31 04:30:40;;;;;;;23.50;15.13;;;7.50;99.90;;;;;;5094413;28;20192;-75
2022/10/31 04:33:06;;;;;;;19.30;15.37;;;7.40;99.90;;;;;;5094146;28;20192;-75
2022/10/31 04:35:34;;;;;;;17.07;13.63;;;7.30;99.90;;;;;;5094492;28;20216;-76
2022/10/31 04:38:01;;;;;;;15.90;12.90;;;7.20;99.90;;;;;;5094386;28;20204;-75
2022/10/31 04:40:27;;;;;;;16.17;13.77;;;7.10;99.90;;;;;;5094329;28;20247;-75
2022/10/31 04:42:54;;;;;;;17.70;14.77;;;7.00;99.90;;;;;;5094041;28;20208;-75
2022/10/31 04:45:21;;;;;;;14.93;13.40;;;7.00;99.90;;;;;;5094135;28;20200;-75
2022/10/31 04:47:47;;;;;;;16.60;14.03;;;7.00;99.90;;;;;;5094178;28;20724;-75
2022/10/31 04:50:14;;;;;;;15.07;13.43;;;7.10;99.90;;;;;;5094099;28;20200;-75
2022/10/31 04:52:43;;;;;;;16.63;13.63;;;7.00;99.90;;;;;;5093911;28;20196;-75
2022/10/31 04:55:11;;;;;;;19.83;14.57;;;7.00;99.90;;;;;;5093963;28;20255;-75
2022/10/31 04:57:41;;;;;;;22.00;16.10;;;7.00;99.90;;;;;;5093843;28;20206;-75
2022/10/31 05:00:09;;;;;;;21.00;14.90;;;7.20;99.90;;;;;;5093719;28;20659;-75
2022/10/31 05:02:43;;;;;;;19.27;14.53;;;7.20;99.90;;;;;;5093847;28;20192;-75
2022/10/31 05:05:10;;;;;;;18.80;13.93;;;7.10;99.90;;;;;;5092956;28;20292;-75
2022/10/31 05:07:40;;;;;;;17.73;15.00;;;7.20;99.90;;;;;;5093538;28;20224;-75
2022/10/31 05:10:10;;;;;;;15.43;13.67;;;7.10;99.90;;;;;;5093637;28;20196;-75
2022/10/31 05:12:37;;;;;;;15.93;12.80;;;7.00;99.90;;;;;;5093452;28;20299;-74
2022/10/31 05:15:04;;;;;;;16.40;13.57;;;6.90;99.90;;;;;;5093608;28;20248;-75
2022/10/31 05:17:31;;;;;;;15.07;13.13;;;6.90;99.90;;;;;;5093497;28;20253;-75
2022/10/31 05:19:58;;;;;;;16.73;14.40;;;6.90;99.90;;;;;;5093468;28;20196;-75
2022/10/31 05:22:25;;;;;;;15.90;12.57;;;6.80;99.90;;;;;;5093482;28;20203;-75
2022/10/31 05:24:51;;;;;;;18.57;12.90;;;6.80;99.90;;;;;;5093405;28;20238;-75
2022/10/31 05:27:19;;;;;;;18.37;14.60;;;6.90;99.90;;;;;;5093138;28;20637;-75
2022/10/31 05:29:46;;;;;;;16.33;14.53;;;7.00;99.90;;;;;;5093407;28;20789;-75
2022/10/31 05:32:12;;;;;;;18.37;14.00;;;7.00;99.90;;;;;;5093373;28;20200;-75
2022/10/31 05:34:39;;;;;;;17.17;13.80;;;6.90;99.90;;;;;;5093281;28;20246;-75
2022/10/31 05:37:06;;;;;;;18.53;13.33;;;6.90;99.90;;;;;;5093212;28;20204;-75
2022/10/31 05:39:32;;;;;;;19.50;15.17;;;7.00;99.90;;;;;;5093179;28;20269;-75
2022/10/31 05:41:59;;;;;;;18.10;15.17;;;7.00;99.90;;;;;;5092926;28;20192;-75
2022/10/31 05:44:27;;;;;;;18.77;14.20;;;7.00;99.90;;;;;;5093050;28;20662;-75
2022/10/31 05:46:54;;;;;;;20.50;15.53;;;7.00;99.90;;;;;;5093082;28;20227;-75
2022/10/31 05:49:20;;;;;;;19.17;14.83;;;6.90;99.90;;;;;;5093023;28;20200;-75
2022/10/31 05:51:47;;;;;;;19.23;14.70;;;6.90;99.90;;;;;;5092897;28;20200;-75
2022/10/31 05:54:14;;;;;;;18.90;15.50;;;6.90;99.90;;;;;;5092805;28;20200;-75
2022/10/31 05:56:40;;;;;;;17.40;14.57;;;6.90;99.90;;;;;;5093056;28;20601;-74
2022/10/31 05:59:07;;;;;;;22.57;17.13;;;7.00;99.90;;;;;;5092983;28;20196;-75
2022/10/31 06:01:35;;;;;;;19.67;16.17;;;7.20;99.90;;;;;;5093211;28;20196;-75
2022/10/31 06:04:01;;;;;;;22.67;16.40;;;7.10;99.90;;;;;;5092801;28;20254;-75
2022/10/31 06:06:28;;;;;;;19.77;15.90;;;7.00;99.90;;;;;;5092711;28;20269;-75
2022/10/31 06:08:55;;;;;;;19.40;16.23;;;6.90;99.90;;;;;;5092690;28;20204;-75
2022/10/31 06:11:21;;;;;;;19.50;15.87;;;6.90;99.90;;;;;;5092914;28;20196;-75
2022/10/31 06:13:48;;;;;;;19.67;15.53;;;7.00;99.90;;;;;;5092799;28;20257;-75
2022/10/31 06:16:15;;;;;;;19.00;14.23;;;7.00;99.90;;;;;;5094344;28;20204;-75
2022/10/31 06:18:43;;;;;;;19.07;14.80;;;6.90;99.90;;;;;;5096918;28;20605;-75
2022/10/31 06:21:09;;;;;;;19.80;14.57;;;6.90;99.90;;;;;;5096831;28;20200;-75
2022/10/31 06:23:36;;;;;;;16.13;13.63;;;6.90;99.90;;;;;;5096982;28;20192;-75
2022/10/31 06:26:02;;;;;;;17.23;13.37;;;7.00;99.90;;;;;;5097096;28;20200;-75
2022/10/31 06:28:29;;;;;;;17.47;14.33;;;7.10;99.90;;;;;;5096860;28;20293;-75
2022/10/31 06:30:56;;;;;;;18.27;14.13;;;7.20;99.90;;;;;;5096840;28;20200;-75
2022/10/31 06:33:22;;;;;;;15.53;12.97;;;7.30;99.90;;;;;;5096838;28;20720;-75
2022/10/31 06:35:50;;;;;;;15.43;13.80;;;7.30;99.90;;;;;;5096696;28;20196;-76
2022/10/31 06:38:17;;;;;;;17.33;13.57;;;7.40;99.90;;;;;;5096839;28;20203;-74
2022/10/31 06:40:44;;;;;;;18.43;14.47;;;7.50;99.90;;;;;;5096892;28;20250;-75
2022/10/31 06:43:11;;;;;;;15.67;13.73;;;7.60;99.90;;;;;;5096614;28;20250;-76
2022/10/31 06:45:37;;;;;;;16.07;14.37;;;7.60;99.90;;;;;;5096471;28;20720;-75
2022/10/31 06:48:05;;;;;;;17.73;15.50;;;7.60;99.90;;;;;;5096403;28;20249;-75
2022/10/31 06:50:31;;;;;;;21.47;16.07;;;7.70;99.90;;;;;;5096270;28;20192;-75
2022/10/31 06:52:59;;;;;;;20.40;17.37;;;7.80;99.90;;;;;;5096440;28;20253;-74
2022/10/31 06:55:27;;;;;;;20.67;16.93;;;7.90;99.90;;;;;;5096433;28;20261;-75
2022/10/31 06:57:54;;;;;;;19.80;16.67;;;8.00;99.90;;;;;;5096206;28;20200;-75
2022/10/31 07:00:22;;;;;;;23.37;19.07;;;8.10;99.90;;;;;;5096221;28;20196;-74
2022/10/31 07:02:55;;;;;;;23.90;20.63;;;8.20;99.90;;;;;;5096110;28;20196;-75
2022/10/31 07:05:22;;;;;;;20.87;17.63;;;8.30;99.90;;;;;;5096258;28;20285;-75
2022/10/31 07:07:53;;;;;;;20.00;17.37;;;8.50;99.90;;;;;;5096207;28;20707;-75
2022/10/31 07:10:21;;;;;;;22.17;18.33;;;8.50;99.90;;;;;;5096159;28;20532;-76
2022/10/31 07:12:48;;;;;;;20.93;18.43;;;8.60;99.90;;;;;;5095848;28;20197;-75
2022/10/31 07:15:14;;;;;;;21.30;18.43;;;8.70;99.90;;;;;;5096048;28;20192;-75
2022/10/31 07:17:41;;;;;;;24.17;18.83;;;8.70;99.90;;;;;;5095715;28;20708;-75
2022/10/31 07:20:09;;;;;;;22.30;18.50;;;8.80;99.90;;;;;;5095705;28;20659;-75
2022/10/31 07:22:37;;;;;;;21.83;18.63;;;8.90;99.90;;;;;;5095853;28;20197;-73
2022/10/31 07:25:04;;;;;;;23.60;19.50;;;9.00;99.90;;;;;;5095918;28;20275;-75
2022/10/31 07:27:37;;;;;;;22.00;19.67;;;9.10;99.90;;;;;;5095125;28;20212;-74
2022/10/31 07:30:05;;;;;;;25.27;17.93;;;9.30;99.90;;;;;;5095762;28;20196;-74
2022/10/31 07:32:38;;;;;;;20.53;18.33;;;9.40;99.90;;;;;;5095827;28;20329;-74
2022/10/31 07:35:05;;;;;;;21.07;18.53;;;9.50;99.90;;;;;;5095713;28;20204;-75
2022/10/31 07:37:32;;;;;;;22.57;18.40;;;9.60;99.90;;;;;;5095647;28;20200;-74
2022/10/31 07:39:59;;;;;;;22.03;18.47;;;9.70;99.90;;;;;;5095659;28;20712;-75
2022/10/31 07:42:25;;;;;;;21.20;17.47;;;9.90;99.90;;;;;;5095541;28;20230;-75
2022/10/31 07:44:53;;;;;;;20.37;16.87;;;10.00;99.90;;;;;;5095674;28;20200;-78
2022/10/31 07:47:20;;;;;;;22.93;17.30;;;10.20;99.90;;;;;;5095533;28;20348;-76
2022/10/31 07:49:47;;;;;;;20.60;15.63;;;10.20;99.90;;;;;;5095446;28;20196;-76
2022/10/31 07:52:13;;;;;;;23.90;15.73;;;10.40;99.90;;;;;;5095226;28;20597;-77
2022/10/31 07:54:40;;;;;;;22.37;15.90;;;10.50;99.90;;;;;;5095023;28;20246;-77
2022/10/31 07:57:06;;;;;;;20.33;15.93;;;10.70;99.90;;;;;;5094991;28;20242;-76
2022/10/31 07:59:33;;;;;;;21.67;15.17;;;10.80;99.90;;;;;;5095348;28;20200;-76
2022/10/31 08:02:01;;;;;;;20.07;15.87;;;10.90;99.90;;;;;;5095405;28;20201;-76
2022/10/31 08:04:28;;;;;;;22.97;16.37;;;11.10;99.90;;;;;;5094982;28;20633;-75
2022/10/31 08:06:54;;;;;;;17.27;14.37;;;11.30;99.90;;;;;;5095114;28;20241;-76
2022/10/31 08:09:21;;;;;;;17.47;13.50;;;11.50;99.90;;;;;;5094878;28;20655;-78
2022/10/31 08:11:48;;;;;;;17.90;14.37;;;11.70;99.90;;;;;;5094438;28;20245;-77
2022/10/31 08:14:14;;;;;;;17.47;13.27;;;11.90;99.90;;;;;;5095055;28;20257;-76
2022/10/31 08:16:41;;;;;;;18.47;12.70;;;12.20;99.90;;;;;;5094889;28;20250;-77
2022/10/31 08:19:09;;;;;;;15.30;12.63;;;12.40;99.90;;;;;;5094661;28;20257;-76
2022/10/31 08:21:35;;;;;;;15.70;11.50;;;12.60;99.90;;;;;;5094671;28;20257;-77
2022/10/31 08:24:02;;;;;;;15.90;11.40;;;12.80;99.90;;;;;;5089915;28;20192;-81
2022/10/31 08:26:29;;;;;;;17.27;11.00;;;13.00;99.90;;;;;;5074817;28;20247;-78
2022/10/31 08:28:55;;;;;;;14.37;11.17;;;13.30;99.90;;;;;;5074325;28;20229;-77
2022/10/31 08:31:23;;;;;;;15.43;11.57;;;13.50;99.90;;;;;;5074452;28;20247;-79
2022/10/31 08:33:50;;;;;;;24.40;11.77;;;13.80;99.90;;;;;;5074308;28;20200;-79
2022/10/31 08:36:18;;;;;;;15.33;11.23;;;14.00;99.90;;;;;;5074094;28;20242;-79
2022/10/31 08:38:44;;;;;;;18.60;11.17;;;14.30;99.90;;;;;;5072996;28;20652;-79
2022/10/31 08:41:11;;;;;;;18.17;11.37;;;14.60;99.90;;;;;;5074106;28;20193;-80
2022/10/31 08:43:38;;;;;;;18.17;12.63;;;14.80;99.90;;;;;;5074023;28;20201;-79
2022/10/31 08:46:04;;;;;;;15.88;11.93;;;15.10;99.90;;;;;;5073710;28;20595;-79
2022/10/31 08:48:31;;;;;;;19.27;11.77;;;15.50;99.90;;;;;;5073628;28;20220;-79
2022/10/31 08:50:59;;;;;;;14.25;11.77;;;15.70;99.90;;;;;;5073724;28;20197;-78
2022/10/31 08:53:28;;;;;;;13.27;10.63;;;15.70;99.90;;;;;;5073683;28;20201;-78
2022/10/31 08:55:56;;;;;;;13.35;9.90;;;15.80;99.90;;;;;;5073665;28;20204;-79
2022/10/31 08:58:24;;;;;;;13.63;10.00;;;16.00;99.90;;;;;;5073717;28;20258;-79
2022/10/31 09:00:52;;;;;;;14.40;10.23;;;16.10;99.90;;;;;;5073696;28;20193;-78
2022/10/31 09:03:20;;;;;;;13.23;9.25;;;16.30;99.90;;;;;;5073314;28;20655;-78
2022/10/31 09:05:47;;;;;;;10.15;8.77;;;16.60;99.90;;;;;;5073552;28;20247;-78
2022/10/31 09:08:15;;;;;;;12.10;8.27;;;17.20;99.90;;;;;;5073340;28;20674;-78
2022/10/31 09:10:44;;;;;;;16.15;9.00;;;17.70;99.90;;;;;;5073076;28;20193;-78
2022/10/31 09:13:12;;;;;;;9.35;7.80;;;18.10;99.90;;;;;;5091324;28;20196;-78
2022/10/31 09:15:40;;;;;;;10.52;8.70;;;18.50;99.90;;;;;;5085805;28;20189;-77
2022/10/31 09:18:08;;;;;;;10.32;8.70;;;18.80;99.90;;;;;;5073238;28;20258;-79
2022/10/31 09:20:36;;;;;;;12.63;9.02;;;19.00;99.90;;;;;;5073040;28;20189;-78
2022/10/31 09:23:05;;;;;;;11.38;8.23;;;19.30;99.90;;;;;;5073288;28;20201;-79
2022/10/31 09:25:33;;;;;;;11.90;7.97;;;19.60;99.90;;;;;;5073344;28;20197;-78
2022/10/31 09:28:03;;;;;;;11.52;8.07;;;19.80;99.90;;;;;;5073492;28;20281;-78
2022/10/31 09:30:32;;;;;;;14.27;8.07;;;20.00;99.90;;;;;;5073229;28;20247;-79
2022/10/31 09:33:00;;;;;;;9.55;7.97;;;20.40;99.90;;;;;;5074127;28;20212;-77
2022/10/31 09:35:27;;;;;;;11.23;8.43;;;20.50;99.90;;;;;;5073082;28;20197;-79
2022/10/31 09:37:57;;;;;;;13.45;9.20;;;20.50;99.90;;;;;;5073183;28;20256;-79
2022/10/31 09:40:30;;;;;;;10.65;8.05;;;20.60;99.90;;;;;;5072979;28;20242;-79
2022/10/31 09:43:04;;;;;;;10.15;8.35;;;20.80;99.90;;;;;;5072910;28;20200;-79
2022/10/31 09:45:39;;;;;;;11.77;8.30;;;21.20;99.90;;;;;;5072768;28;20626;-78
2022/10/31 09:48:24;;;;;;;12.27;8.57;;;21.10;99.90;;;;;;5073101;28;20249;-79
2022/10/31 09:50:55;;;;;;;11.68;8.93;;;21.30;99.90;;;;;;5073015;28;20204;-78
2022/10/31 09:53:26;;;;;;;12.45;9.20;;;21.30;99.90;;;;;;5072983;28;20258;-78
2022/10/31 09:55:55;;;;;;;16.20;8.88;;;21.40;99.90;;;;;;5072676;28;20197;-78
2022/10/31 09:58:25;;;;;;;9.70;7.90;;;21.60;99.90;;;;;;5072898;28;20196;-78
2022/10/31 10:00:54;;;;;;;16.67;8.63;;;21.80;99.90;;;;;;5072883;28;20197;-79
2022/10/31 10:03:29;;;;;;;15.52;8.43;;;22.10;99.90;;;;;;5072513;28;20299;-79
2022/10/31 10:06:02;;;;;;;15.80;8.68;;;22.30;99.90;;;;;;5072746;28;20570;-79
2022/10/31 10:08:31;;;;;;;14.10;9.40;;;22.30;99.90;;;;;;5072709;28;20224;-79
2022/10/31 10:11:03;;;;;;;11.63;8.48;;;22.40;99.90;;;;;;5072375;28;20622;-78
2022/10/31 10:13:45;;;;;;;13.73;8.95;;;22.80;99.90;;;;;;5072478;28;20205;-79
2022/10/31 10:16:20;;;;;;;11.82;7.82;;;22.90;99.90;;;;;;5072543;28;20197;-79
2022/10/31 10:19:01;;;;;;;14.20;7.72;;;23.00;99.90;;;;;;5072441;28;20606;-78
2022/10/31 10:21:39;;;;;;;11.98;8.30;;;23.30;99.90;;;;;;5072537;28;20664;-79
2022/10/31 10:24:20;;;;;;;13.55;8.45;;;23.60;99.90;;;;;;5071584;28;20223;-79
2022/10/31 10:26:57;;;;;;;12.90;8.65;;;23.50;99.90;;;;;;5070615;28;20205;-79
2022/10/31 10:29:32;;;;;;;14.23;8.40;;;23.60;99.90;;;;;;5070685;28;20219;-79
2022/10/31 10:32:04;;;;;;;12.13;7.85;;;23.30;99.90;;;;;;5070529;28;20204;-79
2022/10/31 10:34:36;;;;;;;10.98;8.13;;;23.50;99.90;;;;;;5070498;28;20209;-79
2022/10/31 10:37:09;;;;;;;12.02;7.90;;;23.60;99.90;;;;;;5070432;28;20197;-79
2022/10/31 10:39:39;;;;;;;15.68;8.82;;;23.60;99.90;;;;;;5071312;28;20226;-79
2022/10/31 10:47:45;;;;;;;13.95;7.78;;;24.20;99.90;;;;;;5072500;28;20200;-80
2022/10/31 10:50:16;;;;;;;11.65;7.70;;;24.40;99.90;;;;;;5072148;28;20201;-80
2022/10/31 10:52:52;;;;;;;10.88;7.47;;;24.40;99.90;;;;;;5072494;28;20252;-80
2022/10/31 10:55:30;;;;;;;12.18;7.93;;;24.60;99.90;;;;;;5072424;28;20201;-80
2022/10/31 10:57:59;;;;;;;15.68;7.47;;;24.70;99.90;;;;;;5072226;28;20204;-80
2022/10/31 11:00:30;;;;;;;12.68;6.63;;;24.90;99.90;;;;;;5072145;28;20193;-80
2022/10/31 11:02:58;;;;;;;10.32;6.80;;;25.30;99.90;;;;;;5073920;28;20670;-79
2022/10/31 11:05:31;;;;;;;12.27;7.13;;;25.40;99.90;;;;;;5075946;28;20229;-80
2022/10/31 11:07:57;;;;;;;11.77;7.63;;;25.30;99.90;;;;;;5075821;28;20197;-80
2022/10/31 11:10:24;;;;;;;11.40;6.93;;;25.40;99.90;;;;;;5075879;28;20545;-80
2022/10/31 11:13:20;;;;;;;10.93;6.38;;;26.00;99.90;;;;;;5075730;28;20197;-80
2022/10/31 11:15:56;;;;;;;14.18;7.30;;;26.30;99.90;;;;;;5075734;28;20223;-80
2022/10/31 11:18:26;;;;;;;12.88;6.47;;;26.60;99.90;;;;;;5075788;28;20204;-79
2022/10/31 11:20:55;;;;;;;15.10;6.55;;;26.80;99.90;;;;;;5075595;28;20201;-80
2022/10/31 11:23:23;;;;;;;9.75;5.72;;;27.40;99.90;;;;;;5075496;28;20197;-80
2022/10/31 11:25:52;;;;;;;9.43;6.05;;;27.90;99.90;;;;;;5075666;28;20201;-80
2022/10/31 11:28:19;;;;;;;12.00;6.20;;;28.10;99.90;;;;;;5075373;28;20266;-80
2022/10/31 11:30:48;;;;;;;8.82;5.57;;;28.40;99.90;;;;;;5075179;28;20729;-80
2022/10/31 11:33:22;;;;;;;10.45;6.00;;;28.70;99.40;;;;;;5075264;28;20250;-80
2022/10/31 11:35:49;;;;;;;13.50;6.25;;;28.80;98.50;;;;;;5075159;28;20262;-80
2022/10/31 11:38:20;;;;;;;9.73;6.18;;;28.60;97.60;;;;;;5075251;28;20675;-80
2022/10/31 11:40:56;;;;;;;9.05;5.35;;;28.90;97.70;;;;;;5075435;28;20201;-80
2022/10/31 11:43:23;;;;;;;10.52;6.03;;;29.20;96.70;;;;;;5075410;28;20205;-80
2022/10/31 11:45:50;;;;;;;9.85;5.80;;;29.50;96.10;;;;;;5077196;28;20193;-80
2022/10/31 11:48:20;;;;;;;13.40;5.82;;;29.80;95.00;;;;;;5074683;28;20551;-80
2022/10/31 11:50:50;;;;;;;10.77;5.65;;;29.80;94.10;;;;;;5074964;28;20205;-80
2022/10/31 11:53:19;;;;;;;11.93;5.53;;;30.10;94.30;;;;;;5074801;28;20200;-80
2022/10/31 11:55:47;;;;;;;12.15;5.93;;;30.00;93.70;;;;;;5075055;28;20238;-80
2022/10/31 11:58:24;;;;;;;13.18;5.90;;;30.30;92.80;;;;;;5074785;28;20201;-80
2022/10/31 12:00:53;;;;;;;9.13;5.82;;;30.40;91.70;;;;;;5074698;28;20226;-81
2022/10/31 12:03:34;;;;;;;17.35;5.68;;;30.70;91.60;;;;;;5074421;28;20586;-79
2022/10/31 12:06:04;;;;;;;17.58;5.60;;;30.50;90.90;;;;;;5074851;28;20204;-80
2022/10/31 12:08:34;;;;;;;9.35;5.03;;;29.80;90.80;;;;;;5074224;28;20220;-79
2022/10/31 12:11:10;;;;;;;11.05;5.38;;;29.70;90.90;;;;;;5074276;28;20216;-78
2022/10/31 12:13:41;;;;;;;15.50;5.45;;;29.70;90.50;;;;;;5074360;28;20586;-78
2022/10/31 12:16:17;;;;;;;6.68;4.88;;;29.40;90.80;;;;;;5074540;28;20610;-79
2022/10/31 12:18:57;;;;;;;12.25;5.45;;;29.20;90.80;;;;;;5074143;28;20200;-79
2022/10/31 12:21:44;;;;;;;10.43;5.35;;;28.30;91.50;;;;;;5074116;28;20193;-79
2022/10/31 12:24:23;;;;;;;12.73;5.63;;;27.70;92.10;;;;;;5074040;28;20205;-78
2022/10/31 12:27:00;;;;;;;11.52;5.28;;;26.70;92.30;;;;;;5074279;28;20201;-79
2022/10/31 12:29:43;;;;;;;10.57;5.35;;;26.20;93.20;;;;;;5073936;28;20691;-79
2022/10/31 12:32:29;;;;;;;9.95;5.30;;;25.60;93.30;;;;;;5073848;28;20258;-77
2022/10/31 12:35:25;;;;;;;9.82;5.00;;;25.10;94.10;;;;;;5073736;28;20258;-78
2022/10/31 12:38:10;;;;;;;13.50;5.35;;;24.80;93.80;;;;;;5073806;28;20200;-79
2022/10/31 12:40:52;;;;;;;9.52;4.53;;;24.40;93.80;;;;;;5073819;28;20205;-78
2022/10/31 12:43:30;;;;;;;11.27;4.68;;;24.00;93.70;;;;;;5073723;28;20208;-78
2022/10/31 12:45:58;;;;;;;9.63;4.68;;;23.60;94.80;;;;;;5073878;28;20197;-78
2022/10/31 12:48:42;;;;;;;9.40;5.22;;;23.40;95.30;;;;;;5073525;28;20663;-79
2022/10/31 12:51:16;;;;;;;8.95;4.60;;;23.40;95.90;;;;;;5073770;28;20624;-78
2022/10/31 12:54:02;;;;;;;9.13;5.18;;;23.30;96.40;;;;;;5073602;28;20614;-78